CYNR

METAR CYNR 281200Z AUTO 00000KT 9SM CLR M04/M06 A3003 RMK AO2 SLP183
METAR
LOCATION
CYNR
DATE - TIME
281200Z
WIND
CALM WIND
VISIBILITY
9SM
RUNWAY VISUAL RANGE
NOT REPORTED
WEATHER
CLOUDINESS
CLR
TEMP / DEWPOINT
-4 ºC / -6 ºC
ALTIMETER
30.03 in. Hg
RECENT WEATHER
NOT REPORTED
WIND SHEAR
NOT REPORTED
REMARKS
RMK AO2 SLP183
SEA LEVEL PRESSURE: hPa

CYNR

METAR CYNR 281100Z AUTO 32003KT 9SM CLR M04/M07 A3002 RMK AO2 SLP179
METAR
LOCATION
CYNR
DATE - TIME
281100Z
WIND
320 TRUE @ 3 KNOTS
VISIBILITY
9SM
RUNWAY VISUAL RANGE
NOT REPORTED
WEATHER
CLOUDINESS
CLR
TEMP / DEWPOINT
-4 ºC / -7 ºC
ALTIMETER
30.02 in. Hg
RECENT WEATHER
NOT REPORTED
WIND SHEAR
NOT REPORTED
REMARKS
RMK AO2 SLP179
SEA LEVEL PRESSURE: hPa

CYNR

METAR CYNR 281000Z AUTO 32004KT 9SM BR CLR M03/M06 A3001 RMK AO2 SLP175
METAR
LOCATION
CYNR
DATE - TIME
281000Z
WIND
320 TRUE @ 4 KNOTS
VISIBILITY
9SM
RUNWAY VISUAL RANGE
NOT REPORTED
WEATHER
MIST
CLOUDINESS
CLR
TEMP / DEWPOINT
-3 ºC / -6 ºC
ALTIMETER
30.01 in. Hg
RECENT WEATHER
NOT REPORTED
WIND SHEAR
NOT REPORTED
REMARKS
RMK AO2 SLP175
SEA LEVEL PRESSURE: hPa

Your time UTC time
 
 
Weather data provided by AXYS Technologies Inc., www.axystechnologies.com
 
Station History